Impacts TAF Board
For situational awareness. Not to be used for flight planning purposes.
IDs:

KRIL - Rifle/Garfield Cnty, CO, US

Issued at 0530 UTC 15 Jul 2020
Updated at 1040 UTC 15 Jul 2020
Potential Impact None Slight Moderate High
Time0953Z 15/11Z 15/12Z 15/13Z 15/14Z 15/15Z 15/16Z 15/17Z 15/18Z 15/19Z 15/20Z 15/21Z 15/22Z 15/23Z>>
Type OBS PRVL PRVL PRVL PRVL PRVL PRVL PRVL PRVL PRVL PRVL PRVL PRVL PRVL
VIS 10 >6 >6 >6 >6 >6 >6 >6 >6 >6 >6 >6 >6 >6
CIG -- 250 250 250 250 250 250 250 250 250 250 250 -- --
Cover CLR BKN BKN BKN BKN BKN BKN BKN BKN BKN BKN BKN FEW FEW
FltCat VFR VFR VFR VFR VFR VFR VFR VFR VFR VFR VFR VFR VFR VFR
WX -- -- -- -- -- -- -- -- -- -- -- -- -- --
WDir 150 120 120 120 120 120 120 120 120 330 330 330 300 300
WSpd 4 4 4 4 4 4 4 4 4 6 6 6 10 10
WGst -- -- -- -- -- -- -- -- -- -- -- -- 17 17
Raw TAF
KRIL 150530Z 1506/1606 13012KT P6SM VCSH FEW100 BKN250
  FM150800 12004KT P6SM BKN250
  FM151900 33006KT P6SM BKN250
  FM152200 30010G17KT P6SM FEW150 FEW250
  FM160300 15007KT P6SM FEW150 FEW250


Raw METAR
KRIL 150953Z AUTO 15004KT 10SM CLR 16/09 A3015 RMK AO2 SLP124 T01610094
KRIL 150853Z AUTO 00000KT 10SM CLR 17/10 A3014 RMK AO2 SLP121 T01670100 53006
KRIL 150753Z AUTO 00000KT 10SM CLR 19/09 A3013 RMK AO2 SLP116 T01890094

METAR Board
Radar Display
Forecast Discussion
For situational awareness. Not to be used for flight planning purposes.